Time;durP1;ratioP1;P1;durP2;ratioP2;P2;SDS_P1;SDS_P2;PMS_P1;PMS_P2;Temp;Humidity;BMP_temperature;BMP_pressure;BME280_temperature;BME280_humidity;BME280_pressure;Samples;Min_cycle;Max_cycle;Signal;HPM_P1;HPM_P2
2022/11/29 00:01:44;;;;;;;12.37;9.83;;;;;;;1.87;100.00;101100.28;1674920;85;21597;-69
2022/11/29 00:04:10;;;;;;;11.20;8.43;;;;;;;1.87;100.00;101100.28;1682304;85;21045;-70
2022/11/29 00:06:37;;;;;;;13.70;9.18;;;;;;;1.85;100.00;101107.06;1662569;85;21016;-69
2022/11/29 00:09:10;;;;;;;9.90;8.83;;;;;;;1.81;100.00;101100.91;1708002;83;21096;-71
2022/11/29 00:14:23;;;;;;;15.45;10.03;;;;;;;1.94;100.00;101104.77;1683203;85;21073;-69
2022/11/29 00:16:52;;;;;;;12.10;8.88;;;;;;;1.91;100.00;101110.41;1704560;83;21042;-71
2022/11/29 00:19:18;;;;;;;13.68;8.95;;;;;;;1.86;100.00;101106.08;1683909;85;21124;-72
2022/11/29 00:21:45;;;;;;;12.13;8.28;;;;;;;1.89;100.00;101099.11;1683429;85;21908;-72
2022/11/29 00:24:12;;;;;;;12.23;9.25;;;;;;;1.89;100.00;101108.40;1683376;85;20992;-72
2022/11/29 00:26:39;;;;;;;12.07;9.05;;;;;;;1.90;100.00;101099.45;1703863;83;20976;-74
2022/11/29 00:29:05;;;;;;;15.28;9.45;;;;;;;1.96;100.00;101101.48;1713381;83;20976;-75
2022/11/29 00:31:32;;;;;;;13.72;9.03;;;;;;;1.99;100.00;101096.34;1688327;83;21021;-74
2022/11/29 00:34:03;;;;;;;14.28;9.05;;;;;;;1.99;100.00;101102.97;1709807;83;20976;-75
2022/11/29 00:36:30;;;;;;;13.58;9.20;;;;;;;1.98;100.00;101102.13;1712915;83;21087;-76
2022/11/29 00:38:56;;;;;;;12.88;8.78;;;;;;;2.00;100.00;101098.84;1712835;83;21554;-76
2022/11/29 00:41:25;;;;;;;12.20;8.48;;;;;;;1.98;100.00;101101.30;1712957;83;20972;-75
2022/11/29 00:43:52;;;;;;;17.23;8.55;;;;;;;1.96;100.00;101105.46;1691051;83;21057;-76
2022/11/29 00:46:18;;;;;;;14.30;10.65;;;;;;;1.94;100.00;101095.98;1683723;85;21136;-75
2022/11/29 00:48:45;;;;;;;17.10;11.22;;;;;;;1.98;100.00;101098.65;1683093;85;21034;-75
2022/11/29 00:51:11;;;;;;;12.75;8.60;;;;;;;2.00;100.00;101099.33;1682791;85;21010;-75
2022/11/29 00:53:38;;;;;;;13.55;10.00;;;;;;;1.88;100.00;101100.09;1683949;83;21517;-75
2022/11/29 00:56:06;;;;;;;13.10;9.13;;;;;;;1.79;100.00;101097.56;1684119;85;21560;-76
2022/11/29 00:58:33;;;;;;;12.60;9.55;;;;;;;1.74;100.00;101100.20;1635131;85;21589;-72
2022/11/29 01:00:59;;;;;;;9.50;7.78;;;;;;;1.69;100.00;101104.31;1684328;85;21659;-73
2022/11/29 01:03:26;;;;;;;11.48;9.40;;;;;;;1.69;100.00;101110.94;1673466;83;21624;-71
2022/11/29 01:05:52;;;;;;;11.05;7.92;;;;;;;1.66;100.00;101100.66;1713161;83;21548;-71
2022/11/29 01:08:19;;;;;;;10.95;7.70;;;;;;;1.66;100.00;101099.34;1713528;83;21556;-71
2022/11/29 01:10:45;;;;;;;10.63;7.87;;;;;;;1.72;100.00;101106.67;1713332;83;21141;-72
2022/11/29 01:13:12;;;;;;;10.93;8.38;;;;;;;1.75;100.00;101101.87;1712328;83;21063;-72
2022/11/29 01:15:39;;;;;;;11.53;7.37;;;;;;;1.77;100.00;101105.70;1675674;85;21112;-72
2022/11/29 01:18:06;;;;;;;11.65;7.28;;;;;;;1.82;100.00;101111.37;1684262;85;21342;-72
2022/11/29 01:20:34;;;;;;;13.60;9.20;;;;;;;1.81;100.00;101105.72;1684280;85;21510;-68
2022/11/29 01:23:01;;;;;;;12.90;8.90;;;;;;;1.80;100.00;101104.55;1672880;83;22240;-70
2022/11/29 01:25:28;;;;;;;12.23;10.53;;;;;;;1.88;100.00;101097.94;1713268;82;21039;-69
2022/11/29 01:27:55;;;;;;;27.45;16.62;;;;;;;1.84;100.00;101112.52;1688792;83;20948;-68
2022/11/29 01:30:21;;;;;;;18.10;11.40;;;;;;;1.81;100.00;101107.53;1713416;83;21031;-69
2022/11/29 01:32:48;;;;;;;13.83;10.53;;;;;;;1.84;100.00;101104.55;1713551;83;21036;-69
2022/11/29 01:35:14;;;;;;;14.00;10.18;;;;;;;1.86;100.00;101103.92;1712658;83;21505;-71
2022/11/29 01:37:41;;;;;;;13.32;11.12;;;;;;;1.86;100.00;101103.92;1663381;84;20987;-70
2022/11/29 01:40:08;;;;;;;18.40;10.00;;;;;;;1.84;100.00;101105.39;1703494;84;20956;-68
2022/11/29 01:42:35;;;;;;;12.00;8.55;;;;;;;1.87;100.00;101109.56;1678376;85;20954;-70
2022/11/29 01:45:07;;;;;;;11.60;7.97;;;;;;;1.91;100.00;101102.95;1673717;85;21179;-70
2022/11/29 01:47:36;;;;;;;12.35;7.80;;;;;;;1.94;100.00;101102.61;1687929;83;21231;-69
2022/11/29 01:50:04;;;;;;;12.85;9.08;;;;;;;1.95;100.00;101113.08;1688268;83;21043;-70
2022/11/29 01:52:31;;;;;;;13.45;9.68;;;;;;;1.95;100.00;101113.08;1687322;85;21049;-70
2022/11/29 01:55:02;;;;;;;9.65;7.85;;;;;;;1.90;100.00;101112.72;1687168;85;21019;-70
2022/11/29 01:57:28;;;;;;;11.73;9.73;;;;;;;1.90;100.00;101115.37;1687418;84;21031;-69
2022/11/29 02:00:04;;;;;;;14.53;9.65;;;;;;;1.89;100.00;101115.52;1687260;85;21020;-68
2022/11/29 02:02:46;;;;;;;11.83;8.30;;;;;;;1.91;100.00;101114.88;1686054;83;21669;-70
2022/11/29 02:05:14;;;;;;;15.78;9.53;;;;;;;1.93;100.00;101109.74;1668491;85;20995;-70
2022/11/29 02:07:43;;;;;;;15.43;9.33;;;;;;;1.94;100.00;101114.55;1688501;85;21105;-69
2022/11/29 02:10:10;;;;;;;9.95;8.08;;;;;;;1.91;100.00;101101.62;1688905;85;21046;-70
2022/11/29 02:12:57;;;;;;;12.90;7.87;;;;;;;1.88;100.00;101107.22;1688409;85;21280;-69
2022/11/29 02:15:53;;;;;;;7.20;5.72;;;;;;;1.88;100.00;101107.22;1688637;85;21129;-69
2022/11/29 02:19:14;;;;;;;8.78;6.37;;;;;;;1.82;100.00;101113.19;1697306;83;20909;-72
2022/11/29 02:21:58;;;;;;;8.80;7.03;;;;;;;1.81;100.00;101109.70;1695771;83;21097;-72
2022/11/29 02:24:45;;;;;;;10.23;8.33;;;;;;;1.82;100.00;101111.86;1687916;83;21014;-72
2022/11/29 02:27:48;;;;;;;12.37;7.42;;;;;;;1.85;100.00;101116.84;1688118;84;21362;-67
2022/11/29 02:30:22;;;;;;;6.58;5.65;;;;;;;1.83;100.00;101120.96;1688469;85;21062;-71
2022/11/29 02:33:12;;;;;;;11.45;7.90;;;;;;;1.84;100.00;101118.66;1680317;84;21104;-70
2022/11/29 02:36:00;;;;;;;14.18;8.00;;;;;;;1.85;100.00;101107.55;1700662;83;21032;-71
2022/11/29 02:39:06;;;;;;;9.53;6.70;;;;;;;1.83;100.00;101101.56;1714143;83;21652;-72
2022/11/29 02:41:44;;;;;;;9.73;7.22;;;;;;;1.85;100.00;101103.08;1729035;83;22237;-70
2022/11/29 02:44:47;;;;;;;9.45;6.53;;;;;;;1.79;100.00;101101.55;1728698;82;20937;-69
2022/11/29 02:48:06;;;;;;;9.25;8.20;;;;;;;1.80;100.00;101097.91;1720929;82;22250;-69
2022/11/29 02:51:09;;;;;;;9.50;7.08;;;;;;;1.73;100.00;101102.52;1713434;83;21012;-69
2022/11/29 02:53:53;;;;;;;9.73;8.43;;;;;;;1.68;100.00;101106.62;1684111;84;21054;-68
2022/11/29 02:56:46;;;;;;;8.73;7.67;;;;;;;1.60;100.00;101114.05;1702621;84;21264;-71
2022/11/29 02:59:38;;;;;;;8.80;7.63;;;;;;;1.53;100.00;101116.17;1702850;84;21555;-69
2022/11/29 03:02:39;;;;;;;9.08;7.62;;;;;;;1.41;100.00;101121.37;1703480;82;21590;-72
2022/11/29 03:05:45;;;;;;;11.83;8.48;;;;;;;1.35;100.00;101122.83;1673159;84;21458;-72
2022/11/29 03:08:51;;;;;;;13.38;8.83;;;;;;;1.30;100.00;101113.18;1704242;84;21073;-72
2022/11/29 03:11:51;;;;;;;8.65;7.03;;;;;;;1.19;100.00;101103.69;1704323;84;21871;-73
2022/11/29 03:14:27;;;;;;;8.33;6.70;;;;;;;1.26;100.00;101117.13;1674206;85;21061;-72
2022/11/29 03:17:19;;;;;;;7.55;6.37;;;;;;;1.33;100.00;101114.70;1717764;82;21084;-74
2022/11/29 03:20:03;;;;;;;6.47;5.87;;;;;;;1.39;100.00;101116.22;1684526;84;21053;-74
2022/11/29 03:23:03;;;;;;;6.67;6.00;;;;;;;1.42;100.00;101115.93;1711840;82;21060;-69
2022/11/29 03:25:38;;;;;;;7.58;6.80;;;;;;;1.40;100.00;101113.91;1703279;82;21441;-68
2022/11/29 03:28:21;;;;;;;8.78;7.03;;;;;;;1.38;100.00;101113.26;1702028;83;21060;-69
2022/11/29 03:31:10;;;;;;;;;;;;;;;1.36;100.00;101119.20;1717008;82;21061;-70
2022/11/29 03:34:07;;;;;;;9.13;6.50;;;;;;;1.37;100.00;101119.54;1729255;83;20175;-69
2022/11/29 03:36:48;;;;;;;8.35;6.40;;;;;;;1.36;100.00;101124.50;1728521;82;21021;-70
2022/11/29 03:39:25;;;;;;;11.83;6.95;;;;;;;1.36;100.00;101124.50;1689869;84;22378;-70
2022/11/29 03:42:04;;;;;;;8.28;7.12;;;;;;;1.33;100.00;101127.47;1668563;85;21057;-70
2022/11/29 03:47:03;;;;;;;10.07;7.03;;;;;;;1.26;100.00;101129.89;1795114;78;22556;-68
2022/11/29 03:49:40;;;;;;;13.18;7.75;;;;;;;1.18;100.00;101130.33;1752729;81;20964;-67
2022/11/29 03:52:32;;;;;;;11.95;7.67;;;;;;;1.16;100.00;101132.29;1752701;81;21187;-71
2022/11/29 03:55:38;;;;;;;13.25;8.23;;;;;;;1.15;100.00;101126.67;1689496;84;21055;-68
2022/11/29 03:58:42;;;;;;;10.93;7.00;;;;;;;1.18;100.00;101135.14;1686911;84;21499;-69
2022/11/29 04:01:54;;;;;;;10.93;5.87;;;;;;;1.20;100.00;101134.47;1723483;83;21011;-70
2022/11/29 04:04:44;;;;;;;8.70;6.33;;;;;;;1.29;100.00;101134.06;1704781;83;21487;-70
2022/11/29 04:07:23;;;;;;;9.53;6.90;;;;;;;1.31;100.00;101132.91;1726006;83;21157;-70
2022/11/29 04:10:26;;;;;;;8.38;6.10;;;;;;;1.31;100.00;101131.59;1682030;84;20965;-69
2022/11/29 04:13:35;;;;;;;10.25;6.72;;;;;;;1.28;100.00;101138.53;1723012;83;20987;-70
2022/11/29 04:16:35;;;;;;;8.08;6.83;;;;;;;1.14;100.00;101144.88;1722790;81;20979;-69
2022/11/29 04:19:59;;;;;;;9.68;6.55;;;;;;;1.03;100.00;101143.78;1686240;83;21050;-70
2022/11/29 04:23:17;;;;;;;6.67;5.10;;;;;;;1.05;100.00;101146.63;1723191;83;21059;-69
2022/11/29 04:26:10;;;;;;;10.05;7.28;;;;;;;1.08;100.00;101146.31;1683547;84;21054;-69
2022/11/29 04:28:45;;;;;;;11.10;7.85;;;;;;;1.11;100.00;101143.34;1693138;84;21550;-70
2022/11/29 04:31:50;;;;;;;11.12;7.22;;;;;;;1.08;100.00;101146.31;1707988;83;21075;-68
2022/11/29 04:34:56;;;;;;;9.45;7.78;;;;;;;1.10;100.00;101146.17;1693010;84;21531;-69
2022/11/29 04:38:10;;;;;;;8.43;6.28;;;;;;;1.08;100.00;101150.29;1696068;84;21175;-69
2022/11/29 04:41:19;;;;;;;8.68;7.15;;;;;;;1.04;100.00;101142.31;1680759;85;21003;-69
2022/11/29 04:43:54;;;;;;;8.80;6.33;;;;;;;1.11;100.00;101142.52;1680998;85;21033;-70
2022/11/29 04:46:49;;;;;;;9.70;7.25;;;;;;;1.12;100.00;101146.83;1679189;84;21050;-70
2022/11/29 04:49:49;;;;;;;7.67;6.87;;;;;;;1.05;100.00;101144.47;1690194;84;21051;-71
2022/11/29 04:52:24;;;;;;;11.60;8.10;;;;;;;1.07;100.00;101157.05;1690449;84;21768;-70
2022/11/29 04:55:15;;;;;;;10.50;7.35;;;;;;;1.06;100.00;101161.52;1690184;84;20969;-70
2022/11/29 04:57:59;;;;;;;8.98;6.67;;;;;;;1.07;100.00;101151.76;1689288;84;20999;-70
2022/11/29 05:00:26;;;;;;;12.33;8.30;;;;;;;1.06;100.00;101152.73;1685811;84;21010;-70
2022/11/29 05:03:03;;;;;;;12.10;7.87;;;;;;;1.12;100.00;101154.78;1689897;84;21038;-70
2022/11/29 05:05:41;;;;;;;8.65;7.05;;;;;;;1.12;100.00;101158.75;1664562;84;22514;-71
2022/11/29 05:08:46;;;;;;;11.40;7.40;;;;;;;1.11;100.00;101156.59;1689558;84;21023;-72
2022/11/29 05:11:24;;;;;;;7.03;6.33;;;;;;;1.10;100.00;101162.07;1667974;84;21050;-70
2022/11/29 05:14:20;;;;;;;11.43;7.97;;;;;;;1.09;100.00;101163.88;1661675;86;21014;-70
2022/11/29 05:17:09;;;;;;;8.33;7.08;;;;;;;1.07;100.00;101164.52;1681249;84;21028;-71
2022/11/29 05:20:19;;;;;;;9.23;6.87;;;;;;;1.10;100.00;101162.91;1689532;84;22114;-70
2022/11/29 05:23:08;;;;;;;10.40;7.53;;;;;;;1.07;100.00;101168.48;1672360;84;21659;-71
2022/11/29 05:25:43;;;;;;;10.72;8.65;;;;;;;1.00;100.00;101166.13;1661528;86;20991;-70
2022/11/29 05:28:46;;;;;;;12.40;7.87;;;;;;;0.92;100.00;101162.05;1661862;85;21007;-70
2022/11/29 05:31:51;;;;;;;11.20;6.85;;;;;;;0.87;100.00;101166.97;1661377;84;21063;-73
2022/11/29 05:34:52;;;;;;;11.20;9.08;;;;;;;0.89;100.00;101165.02;1661201;86;21251;-71
2022/11/29 05:37:42;;;;;;;11.93;7.53;;;;;;;0.95;100.00;101171.04;1661931;86;21099;-70
2022/11/29 05:40:51;;;;;;;10.00;7.58;;;;;;;1.03;100.00;101177.73;1661823;86;20998;-70
2022/11/29 05:43:48;;;;;;;11.00;8.73;;;;;;;1.06;100.00;101179.23;1658254;86;21039;-70
2022/11/29 05:46:46;;;;;;;13.72;9.13;;;;;;;1.03;100.00;101184.84;1671790;85;21028;-70
2022/11/29 05:49:45;;;;;;;13.53;10.23;;;;;;;0.99;100.00;101184.32;1712391;82;21019;-70
2022/11/29 05:52:25;;;;;;;8.85;7.42;;;;;;;0.94;100.00;101179.97;1712900;82;21040;-72
2022/11/29 05:55:28;;;;;;;8.28;7.45;;;;;;;0.99;100.00;101192.27;1678288;85;21528;-71
2022/11/29 05:57:59;;;;;;;10.95;6.60;;;;;;;1.07;100.00;101196.80;1726636;82;21051;-72
2022/11/29 06:00:32;;;;;;;;;;;;;;;1.06;100.00;101202.58;1681312;85;21081;-70
2022/11/29 11:00:23;;;;;;;23.00;17.30;;;;;;;0.36;100.00;101180.34;1849995;75;22745;-73
2022/11/29 11:02:50;;;;;;;26.60;17.95;;;;;;;0.38;100.00;101188.94;1769337;79;20971;-74
2022/11/29 11:05:22;;;;;;;26.65;17.42;;;;;;;0.42;100.00;101177.11;1799384;79;21607;-73
2022/11/29 11:07:57;;;;;;;27.37;17.48;;;;;;;0.50;100.00;101188.27;1802664;78;20910;-71
2022/11/29 11:10:27;;;;;;;22.77;15.68;;;;;;;0.63;100.00;101186.58;1820849;78;20952;-71
2022/11/29 11:13:04;;;;;;;18.62;12.93;;;;;;;0.69;100.00;101185.50;1803216;78;20989;-74
2022/11/29 11:15:31;;;;;;;22.62;15.30;;;;;;;0.77;100.00;101185.58;1801064;79;21020;-70
2022/11/29 11:18:02;;;;;;;24.50;15.88;;;;;;;0.85;100.00;101194.11;1797621;79;21574;-73
2022/11/29 11:20:36;;;;;;;17.12;13.03;;;;;;;0.86;100.00;101191.30;1798158;78;20959;-72
2022/11/29 11:23:06;;;;;;;24.25;15.55;;;;;;;0.92;100.00;101188.54;1766373;81;21058;-72
2022/11/29 11:25:37;;;;;;;21.23;17.15;;;;;;;0.92;100.00;101193.00;1791162;78;20971;-71
2022/11/29 11:28:21;;;;;;;18.30;14.65;;;;;;;0.90;100.00;101190.52;1821729;78;21644;-73
2022/11/29 11:30:59;;;;;;;21.07;14.27;;;;;;;0.88;100.00;101196.45;1811123;78;21528;-74
2022/11/29 11:33:38;;;;;;;18.42;14.25;;;;;;;0.95;100.00;101194.88;1771959;79;21212;-74
2022/11/29 11:36:23;;;;;;;18.25;13.10;;;;;;;0.97;100.00;101190.73;1799500;78;21531;-75
2022/11/29 11:38:54;;;;;;;17.48;15.10;;;;;;;0.92;100.00;101184.56;1777013;78;21031;-78
2022/11/29 11:44:48;;;;;;;18.60;12.10;;;;;;;1.00;100.00;101186.48;1772336;79;21130;-71
2022/11/29 11:47:26;;;;;;;19.82;13.00;;;;;;;0.91;100.00;101187.39;1797208;79;21031;-72
2022/11/29 11:50:05;;;;;;;19.85;13.58;;;;;;;0.80;100.00;101182.64;1766116;81;21058;-73
2022/11/29 11:52:47;;;;;;;20.05;15.08;;;;;;;0.76;100.00;101176.48;1770288;79;21068;-74
2022/11/29 11:55:56;;;;;;;25.43;16.45;;;;;;;0.67;100.00;101175.53;1797858;79;21507;-86
2022/11/29 11:58:56;;;;;;;26.57;14.13;;;;;;;0.65;100.00;101172.71;1781022;78;21029;-77
2022/11/29 12:01:29;;;;;;;17.65;12.82;;;;;;;0.72;100.00;101171.95;1784192;79;21032;-75
2022/11/29 12:04:15;;;;;;;16.77;12.15;;;;;;;0.72;100.00;101177.77;1801030;79;21111;-77
2022/11/29 12:06:59;;;;;;;19.52;12.60;;;;;;;0.76;100.00;101177.31;1770724;79;21023;-74
2022/11/29 12:09:43;;;;;;;;;;;;;;;0.81;100.00;101182.16;1717370;80;21016;-73
2022/11/29 12:12:32;;;;;;;21.60;15.00;;;;;;;0.77;100.00;101175.47;1749785;81;21308;-75
2022/11/29 12:15:16;;;;;;;17.05;11.08;;;;;;;0.72;100.00;101167.98;1765151;81;21017;-72
2022/11/29 12:17:55;;;;;;;14.55;10.68;;;;;;;0.70;100.00;101171.77;1764939;81;20972;-73
2022/11/29 12:20:51;;;;;;;25.25;13.15;;;;;;;0.70;100.00;101168.64;1763970;81;21609;-71
2022/11/29 12:23:35;;;;;;;17.85;12.30;;;;;;;0.67;100.00;101166.79;1764775;79;22300;-72
2022/11/29 12:26:25;;;;;;;16.93;12.07;;;;;;;0.68;100.00;101161.81;1797097;79;21161;-73
2022/11/29 12:28:52;;;;;;;19.37;12.90;;;;;;;0.64;100.00;101169.72;1771081;81;20916;-73
2022/11/29 12:31:45;;;;;;;18.00;11.18;;;;;;;0.62;100.00;101165.08;1785986;79;21003;-72
2022/11/29 12:35:00;;;;;;;23.35;14.93;;;;;;;0.65;100.00;101161.63;1769729;78;21027;-73
2022/11/29 12:37:33;;;;;;;17.65;12.35;;;;;;;0.73;100.00;101164.84;1732532;82;21051;-70
2022/11/29 12:40:14;;;;;;;18.57;12.33;;;;;;;0.84;100.00;101171.25;1723660;82;21275;-72
2022/11/29 12:43:05;;;;;;;27.07;14.20;;;;;;;0.83;100.00;101160.31;1714360;82;20975;-69
2022/11/29 12:46:00;;;;;;;21.33;13.30;;;;;;;0.81;100.00;101171.56;1730767;82;21666;-69
2022/11/29 12:48:46;;;;;;;21.70;13.05;;;;;;;0.77;100.00;101164.39;1736310;81;21594;-69
2022/11/29 12:51:49;;;;;;;19.87;11.75;;;;;;;0.74;100.00;101171.32;1725306;82;21090;-75
2022/11/29 12:54:48;;;;;;;20.15;13.95;;;;;;;0.75;100.00;101171.67;1731855;82;21132;-75
2022/11/29 12:57:32;;;;;;;21.37;13.62;;;;;;;0.74;100.00;101174.45;1731011;82;20979;-74
2022/11/29 13:00:09;;;;;;;24.60;15.48;;;;;;;0.73;100.00;101177.59;1718889;82;21536;-74
2022/11/29 13:02:57;;;;;;;18.57;13.43;;;;;;;0.72;100.00;101178.57;1729792;81;21515;-70
2022/11/29 13:05:44;;;;;;;20.10;12.60;;;;;;;0.77;100.00;101174.98;1755231;80;21045;-71
2022/11/29 13:08:42;;;;;;;17.40;11.15;;;;;;;0.80;100.00;101181.33;1709422;82;22068;-73
2022/11/29 13:11:29;;;;;;;24.02;13.18;;;;;;;0.82;100.00;101182.48;1694332;82;21023;-75
2022/11/29 13:14:13;;;;;;;15.45;10.43;;;;;;;0.88;100.00;101184.53;1730178;82;20994;-74
2022/11/29 13:16:59;;;;;;;22.48;14.47;;;;;;;0.97;100.00;101179.65;1720902;82;20943;-73
2022/11/29 13:19:47;;;;;;;20.57;14.07;;;;;;;0.90;100.00;101181.25;1725559;81;21064;-75
2022/11/29 13:22:37;;;;;;;21.68;11.45;;;;;;;0.87;100.00;101178.88;1727832;82;21144;-74
2022/11/29 13:25:18;;;;;;;20.37;13.68;;;;;;;0.87;100.00;101177.08;1728214;82;21111;-76
2022/11/29 13:27:50;;;;;;;21.90;13.90;;;;;;;0.79;100.00;101174.84;1731345;82;21551;-71
2022/11/29 13:30:17;;;;;;;21.15;13.25;;;;;;;0.70;100.00;101175.74;1729669;82;21052;-74
2022/11/29 13:33:30;;;;;;;21.27;13.10;;;;;;;0.63;100.00;101170.69;1731154;81;20987;-73
2022/11/29 13:36:29;;;;;;;20.12;12.82;;;;;;;0.58;100.00;101171.63;1735931;81;21878;-73
2022/11/29 13:39:13;;;;;;;16.67;11.60;;;;;;;0.54;100.00;101183.50;1750822;81;21042;-73
2022/11/29 13:41:54;;;;;;;16.05;11.38;;;;;;;0.49;100.00;101184.43;1711832;81;21033;-75
2022/11/29 13:44:32;;;;;;;14.75;10.03;;;;;;;0.47;100.00;101179.31;1751883;81;20944;-75
2022/11/29 13:47:11;;;;;;;16.97;10.65;;;;;;;0.52;100.00;101187.64;1751704;81;21011;-74
2022/11/29 13:50:02;;;;;;;16.12;10.13;;;;;;;0.50;100.00;101188.27;1751717;81;21217;-76
2022/11/29 13:52:44;;;;;;;15.78;9.95;;;;;;;0.49;100.00;101190.56;1752903;81;20952;-75
2022/11/29 13:55:20;;;;;;;16.52;10.80;;;;;;;0.50;100.00;101189.59;1755237;81;21030;-76
2022/11/29 13:58:03;;;;;;;16.12;11.05;;;;;;;0.49;100.00;101194.53;1767892;81;21005;-73
2022/11/29 14:00:47;;;;;;;15.03;9.33;;;;;;;0.42;100.00;101192.15;1755225;81;21583;-75
2022/11/29 14:03:25;;;;;;;11.73;9.60;;;;;;;0.39;100.00;101186.64;1768498;81;21264;-73
2022/11/29 14:06:03;;;;;;;15.48;9.78;;;;;;;0.43;100.00;101199.92;1725157;81;21031;-76
2022/11/29 14:08:55;;;;;;;12.13;9.40;;;;;;;0.46;100.00;101205.91;1734050;81;21050;-75
2022/11/29 14:11:32;;;;;;;14.15;9.63;;;;;;;0.39;100.00;101203.84;1726555;82;20956;-77
2022/11/29 20:12:26;;;;;;;12.73;8.30;;;;;;;-0.25;100.00;101218.85;1814155;79;22665;-76
2022/11/29 20:14:53;;;;;;;13.98;9.65;;;;;;;-0.24;100.00;101221.33;1786408;80;20972;-71
2022/11/29 20:17:20;;;;;;;13.93;8.13;;;;;;;-0.18;100.00;101218.12;1786114;80;21757;-72
2022/11/29 20:19:47;;;;;;;12.82;8.03;;;;;;;-0.06;100.00;101220.96;1755662;80;20953;-72
2022/11/29 20:22:13;;;;;;;10.40;8.08;;;;;;;-0.01;100.00;101219.20;1786378;80;20952;-72
2022/11/29 20:24:40;;;;;;;10.05;7.65;;;;;;;0.05;100.00;101215.96;1731299;80;21019;-69
2022/11/29 20:27:06;;;;;;;11.63;8.10;;;;;;;0.06;100.00;101216.31;1786402;80;21015;-71
2022/11/29 20:29:33;;;;;;;36.42;19.73;;;;;;;0.15;100.00;101211.47;1786218;80;21879;-73
2022/11/29 20:32:00;;;;;;;24.10;11.50;;;;;;;0.20;100.00;101217.16;1786423;80;21508;-71
2022/11/29 20:34:29;;;;;;;16.30;11.33;;;;;;;0.22;100.00;101217.86;1786352;79;21072;-72
2022/11/29 20:37:11;;;;;;;15.30;9.15;;;;;;;0.27;100.00;101220.91;1786387;80;20980;-73
2022/11/29 20:39:57;;;;;;;10.80;8.45;;;;;;;0.25;100.00;101217.56;1784665;80;21056;-74
2022/11/29 20:43:01;;;;;;;10.72;8.10;;;;;;;0.24;100.00;101212.44;1786314;80;21137;-68
2022/11/29 20:45:28;;;;;;;13.50;7.80;;;;;;;0.18;100.00;101224.43;1763722;80;20925;-74
2022/11/29 20:48:20;;;;;;;12.98;8.70;;;;;;;0.24;100.00;101218.53;1753991;79;20957;-74
2022/11/29 20:50:55;;;;;;;10.78;7.45;;;;;;;0.25;100.00;101226.82;1755993;78;21091;-74
2022/11/29 20:53:36;;;;;;;11.45;7.50;;;;;;;0.23;100.00;101235.41;1786870;78;20944;-73
2022/11/29 20:56:03;;;;;;;13.70;8.75;;;;;;;0.27;100.00;101231.50;1747055;82;21254;-73
2022/11/29 20:58:30;;;;;;;14.30;9.75;;;;;;;0.23;100.00;101229.28;1784090;79;21012;-73
2022/11/29 21:00:57;;;;;;;15.75;8.48;;;;;;;0.18;100.00;101226.23;1773530;80;20980;-73
2022/11/29 21:03:23;;;;;;;11.33;7.78;;;;;;;0.16;100.00;101232.16;1759580;80;21039;-71
2022/11/29 21:05:50;;;;;;;16.12;9.25;;;;;;;0.16;100.00;101222.89;1769593;80;21409;-72
2022/11/29 21:08:19;;;;;;;15.30;10.35;;;;;;;0.18;100.00;101231.05;1755552;80;21100;-73
2022/11/29 21:10:46;;;;;;;9.65;7.05;;;;;;;0.24;100.00;101224.34;1752944;81;21029;-71
2022/11/29 21:13:13;;;;;;;12.53;8.65;;;;;;;0.24;100.00;101227.80;1726471;81;21564;-73
2022/11/29 21:15:40;;;;;;;11.48;9.00;;;;;;;0.20;100.00;101229.06;1687195;83;21027;-74
2022/11/29 21:18:16;;;;;;;13.83;9.08;;;;;;;0.25;100.00;101227.31;1697575;83;21028;-75
2022/11/29 21:20:43;;;;;;;14.28;9.73;;;;;;;0.24;100.00;101226.47;1749504;81;21696;-71
2022/11/29 21:23:19;;;;;;;13.30;8.38;;;;;;;0.25;100.00;101222.02;1703132;83;21041;-74
2022/11/29 21:26:10;;;;;;;15.55;9.40;;;;;;;0.33;100.00;101223.47;1705986;83;21063;-72
2022/11/29 21:28:54;;;;;;;18.27;11.25;;;;;;;0.32;100.00;101217.83;1709575;83;20972;-72
2022/11/29 21:31:21;;;;;;;14.07;8.30;;;;;;;0.31;100.00;101226.25;1697769;82;21036;-72
2022/11/29 21:33:48;;;;;;;18.20;9.00;;;;;;;0.32;100.00;101224.44;1723951;82;21519;-74
2022/11/29 21:36:15;;;;;;;10.05;8.90;;;;;;;0.35;100.00;101225.46;1721108;81;21622;-73
2022/11/29 21:38:42;;;;;;;11.35;8.70;;;;;;;0.37;100.00;101218.22;1723832;82;21064;-72
2022/11/29 21:41:08;;;;;;;11.22;8.23;;;;;;;0.33;100.00;101219.01;1729440;81;21065;-73
2022/11/29 21:43:35;;;;;;;11.75;9.43;;;;;;;0.30;100.00;101215.80;1740515;81;21053;-69
2022/11/29 21:46:01;;;;;;;11.88;8.80;;;;;;;0.32;100.00;101214.69;1716699;83;21212;-71
2022/11/29 21:48:34;;;;;;;10.80;8.23;;;;;;;0.37;100.00;101223.52;1720537;83;20933;-72
2022/11/29 21:51:02;;;;;;;11.90;8.10;;;;;;;0.45;100.00;101218.31;1727852;81;21096;-73
2022/11/29 21:53:28;;;;;;;10.88;8.48;;;;;;;0.47;100.00;101214.20;1730720;81;21107;-72
2022/11/29 21:55:59;;;;;;;11.93;8.70;;;;;;;0.47;100.00;101211.07;1716208;83;20992;-72
2022/11/29 21:58:30;;;;;;;12.80;7.97;;;;;;;0.55;100.00;101213.80;1745258;81;21100;-70
2022/11/29 22:01:09;;;;;;;13.25;8.63;;;;;;;0.57;100.00;101214.50;1706765;82;21282;-70
2022/11/29 22:03:37;;;;;;;13.70;7.67;;;;;;;0.55;99.86;101215.12;1709410;83;21082;-80
2022/11/29 22:06:17;;;;;;;11.78;8.25;;;;;;;0.51;99.33;101215.57;1720739;83;21067;-74
2022/11/29 22:08:47;;;;;;;12.00;7.75;;;;;;;0.49;98.79;101213.55;1695346;83;21136;-75
2022/11/29 22:11:35;;;;;;;8.88;6.53;;;;;;;0.44;98.80;101212.18;1703403;81;21165;-79
2022/11/29 22:16:33;;;;;;;9.28;7.28;;;;;;;0.45;98.41;101214.34;1699771;83;21011;-72
2022/11/29 22:19:00;;;;;;;13.05;7.15;;;;;;;0.47;98.15;101215.53;1722570;83;21555;-70
2022/11/29 22:21:26;;;;;;;11.65;9.48;;;;;;;0.50;98.28;101213.41;1732639;81;21570;-74
2022/11/29 22:23:53;;;;;;;8.93;6.80;;;;;;;0.53;97.87;101211.78;1747479;81;21194;-74
2022/11/29 22:26:21;;;;;;;11.12;7.25;;;;;;;0.51;97.47;101211.11;1721973;83;21022;-70
2022/11/29 22:28:47;;;;;;;10.08;6.08;;;;;;;0.47;97.08;101216.36;1721384;81;21130;-75
